createdAt,value
2022-10-20T00:01:08.809Z,6.93
2022-10-20T00:08:43.247Z,5.93
2022-10-20T00:11:11.789Z,6.47
2022-10-20T00:13:39.921Z,6.73
2022-10-20T00:16:07.763Z,8.13
2022-10-20T00:18:35.926Z,6.20
2022-10-20T00:21:07.641Z,6.27
2022-10-20T00:23:35.194Z,6.10
2022-10-20T00:28:45.561Z,7.40
2022-10-20T00:31:13.517Z,7.67
2022-10-20T00:33:41.123Z,6.30
2022-10-20T00:36:13.556Z,7.00
2022-10-20T00:38:41.866Z,6.90
2022-10-20T00:41:11.562Z,7.23
2022-10-20T00:43:46.656Z,6.27
2022-10-20T00:51:25.531Z,7.60
2022-10-20T00:54:00.221Z,7.33
2022-10-20T00:56:27.754Z,7.67
2022-10-20T00:58:56.121Z,7.00
2022-10-20T01:01:23.787Z,7.87
2022-10-20T01:03:53.471Z,6.93
2022-10-20T01:06:23.424Z,7.27
2022-10-20T01:11:55.143Z,7.30
2022-10-20T01:14:36.192Z,7.30
2022-10-20T01:17:14.243Z,8.53
2022-10-20T01:20:32.792Z,7.70
2022-10-20T01:23:50.865Z,7.37
2022-10-20T01:26:41.221Z,7.30
2022-10-20T01:29:15.957Z,7.03
2022-10-20T01:36:59.502Z,7.27
2022-10-20T01:39:35.188Z,7.77
2022-10-20T01:42:07.422Z,8.67
2022-10-20T01:44:36.523Z,8.33
2022-10-20T01:47:05.931Z,7.60
2022-10-20T01:49:33.342Z,8.40
2022-10-20T01:52:05.221Z,8.83
2022-10-20T01:59:54.816Z,8.03
2022-10-20T02:02:40.232Z,7.70
2022-10-20T02:05:45.701Z,9.07
2022-10-20T02:08:16.488Z,8.67
2022-10-20T02:10:46.567Z,7.37
2022-10-20T02:13:15.346Z,8.70
2022-10-20T02:15:58.765Z,8.87
2022-10-20T02:22:29.632Z,7.40
2022-10-20T02:24:58.214Z,7.67
2022-10-20T02:27:29.393Z,7.67
2022-10-20T02:29:59.902Z,8.43
2022-10-20T02:32:31.782Z,7.63
2022-10-20T02:35:03.487Z,8.80
2022-10-20T02:37:37.427Z,8.03
2022-10-20T02:45:11.628Z,8.00
2022-10-20T02:47:41.991Z,8.00
2022-10-20T02:50:13.002Z,8.33
2022-10-20T02:52:40.787Z,7.23
2022-10-20T02:55:09.187Z,8.77
2022-10-20T02:57:37.252Z,8.53
2022-10-20T03:00:07.424Z,7.63
2022-10-20T03:07:41.054Z,9.20
2022-10-20T03:10:09.220Z,8.90
2022-10-20T03:12:37.072Z,9.33
2022-10-20T03:15:05.494Z,10.33
2022-10-20T03:17:33.247Z,9.27
2022-10-20T03:20:03.114Z,9.23
2022-10-20T03:27:54.657Z,8.93
2022-10-20T03:30:27.865Z,8.50
2022-10-20T03:32:56.321Z,8.37
2022-10-20T03:35:23.494Z,9.53
2022-10-20T03:37:50.944Z,8.87
2022-10-20T03:40:18.320Z,9.07
2022-10-20T03:42:45.550Z,8.93
2022-10-20T03:50:19.707Z,10.23
2022-10-20T03:52:48.295Z,8.97
2022-10-20T03:55:15.932Z,9.93
2022-10-20T03:57:44.335Z,9.43
2022-10-20T04:00:13.653Z,9.27
2022-10-20T04:02:43.222Z,10.63
2022-10-20T04:05:14.209Z,10.30
2022-10-20T04:07:42.607Z,7.90
2022-10-20T04:12:58.025Z,10.07
2022-10-20T04:15:25.675Z,9.97
2022-10-20T04:17:54.049Z,8.87
2022-10-20T04:20:21.714Z,9.67
2022-10-20T04:22:49.165Z,9.40
2022-10-20T04:25:17.025Z,9.17
2022-10-20T04:27:44.382Z,8.70
2022-10-20T04:33:39.382Z,9.63
2022-10-20T04:36:10.196Z,9.80
2022-10-20T04:38:39.854Z,9.53
2022-10-20T04:41:10.363Z,8.60
2022-10-20T04:43:37.672Z,9.80
2022-10-20T04:46:08.632Z,10.33
2022-10-20T04:48:37.928Z,9.73
2022-10-20T04:51:09.427Z,10.80
2022-10-20T04:59:23.454Z,10.50
2022-10-20T05:01:54.937Z,10.30
2022-10-20T05:04:31.421Z,10.57
2022-10-20T05:07:29.792Z,9.47
2022-10-20T05:10:16.023Z,11.00
2022-10-20T05:12:45.517Z,9.60
2022-10-20T05:15:14.442Z,11.63
2022-10-20T05:17:41.874Z,10.90
2022-10-20T05:23:05.153Z,10.67
2022-10-20T05:25:36.791Z,10.90
2022-10-20T05:28:06.216Z,11.30
2022-10-20T05:30:44.661Z,11.97
2022-10-20T05:33:12.994Z,11.97
2022-10-20T05:35:40.657Z,11.80
2022-10-20T05:38:09.154Z,12.53
2022-10-20T05:43:33.712Z,11.97
2022-10-20T05:46:02.941Z,12.10
2022-10-20T05:48:30.886Z,12.23
2022-10-20T05:51:10.687Z,12.80
2022-10-20T05:53:42.904Z,12.40
2022-10-20T05:56:15.278Z,12.60
2022-10-20T05:58:45.243Z,12.97
2022-10-20T06:04:03.120Z,13.20
2022-10-20T06:06:31.446Z,12.67
2022-10-20T06:09:01.959Z,12.67
2022-10-20T06:11:29.887Z,12.57
2022-10-20T06:13:57.244Z,13.63
2022-10-20T06:16:27.213Z,14.47
2022-10-20T06:18:54.891Z,13.07
2022-10-20T06:21:24.887Z,12.83
2022-10-20T06:29:03.968Z,14.37
2022-10-20T06:31:43.035Z,14.73
2022-10-20T06:34:16.405Z,14.70
2022-10-20T06:36:48.244Z,13.07
2022-10-20T06:39:19.812Z,12.80
2022-10-20T06:41:51.147Z,12.50
2022-10-20T06:52:20.539Z,13.43
2022-10-20T06:54:48.073Z,15.40
2022-10-20T06:57:15.944Z,13.43
2022-10-20T06:59:44.853Z,14.10
2022-10-20T07:02:12.710Z,14.37
2022-10-20T07:04:40.585Z,15.30
2022-10-20T07:07:08.918Z,14.07
2022-10-20T07:14:36.863Z,13.83
2022-10-20T07:17:05.054Z,12.77
2022-10-20T07:19:39.011Z,13.37
2022-10-20T07:22:06.464Z,13.37
2022-10-20T07:24:34.159Z,13.00
2022-10-20T07:27:05.472Z,13.73
2022-10-20T07:29:34.784Z,13.03
2022-10-20T07:37:22.113Z,13.87
2022-10-20T07:39:49.712Z,13.47
2022-10-20T07:42:16.976Z,13.23
2022-10-20T07:44:46.466Z,15.33
2022-10-20T07:47:15.223Z,12.50
2022-10-20T07:49:44.599Z,13.10
2022-10-20T07:52:13.613Z,14.17
2022-10-20T07:57:26.619Z,15.10
2022-10-20T07:59:54.386Z,14.73
2022-10-20T08:02:23.205Z,14.47
2022-10-20T08:04:51.275Z,14.60
2022-10-20T08:07:18.774Z,17.37
2022-10-20T08:09:46.706Z,17.30
2022-10-20T08:12:14.302Z,15.80
2022-10-20T08:22:41.934Z,15.83
2022-10-20T08:25:14.925Z,18.60
2022-10-20T08:27:45.644Z,16.07
2022-10-20T08:30:26.144Z,17.83
2022-10-20T08:32:55.631Z,18.30
2022-10-20T08:35:23.472Z,18.70
2022-10-20T08:37:57.369Z,18.37
2022-10-20T08:40:27.813Z,18.83
2022-10-20T08:48:05.684Z,18.90
2022-10-20T08:50:33.974Z,19.50
2022-10-20T08:53:02.278Z,18.20
2022-10-20T08:55:32.296Z,18.50
2022-10-20T08:58:03.069Z,17.63
2022-10-20T09:00:31.726Z,20.03
2022-10-20T09:03:11.608Z,18.13
2022-10-20T09:05:43.225Z,19.73
2022-10-20T09:13:28.165Z,18.57
2022-10-20T09:16:03.078Z,20.80
2022-10-20T09:18:31.645Z,19.87
2022-10-20T09:21:03.487Z,19.37
2022-10-20T09:23:41.675Z,19.83
2022-10-20T09:26:24.955Z,20.10
2022-10-20T09:29:13.309Z,20.43
2022-10-20T09:36:53.650Z,21.43
2022-10-20T09:39:22.515Z,20.33
2022-10-20T09:41:51.885Z,17.73
2022-10-20T09:44:24.178Z,21.50
2022-10-20T09:46:53.397Z,20.73
2022-10-20T09:49:28.666Z,21.13
2022-10-20T09:52:00.564Z,20.60
2022-10-20T09:59:41.473Z,21.17
2022-10-20T10:02:30.658Z,20.43
2022-10-20T10:05:14.473Z,21.20
2022-10-20T10:07:42.195Z,21.33
2022-10-20T10:10:29.546Z,19.77
2022-10-20T10:13:00.249Z,21.20
2022-10-20T10:15:32.150Z,21.57
2022-10-20T10:23:21.980Z,21.20
2022-10-20T10:25:59.310Z,22.10
2022-10-20T10:28:41.598Z,20.83
2022-10-20T10:31:23.097Z,21.70
2022-10-20T10:34:08.985Z,21.47
2022-10-20T10:36:38.889Z,22.07
2022-10-20T10:39:22.016Z,19.70
2022-10-20T10:42:06.834Z,22.80
2022-10-20T10:47:54.871Z,22.93
2022-10-20T10:50:31.171Z,21.00
2022-10-20T10:53:11.132Z,22.53
2022-10-20T10:55:50.658Z,22.47
2022-10-20T10:58:34.091Z,22.50
2022-10-20T11:01:11.358Z,22.77
2022-10-20T11:04:05.325Z,21.53
2022-10-20T11:09:42.331Z,22.50
2022-10-20T11:12:29.732Z,22.67
2022-10-20T11:15:14.317Z,24.43
2022-10-20T11:17:55.442Z,23.20
2022-10-20T11:20:37.213Z,21.40
2022-10-20T11:23:37.057Z,22.60
2022-10-20T11:29:12.105Z,22.73
2022-10-20T11:31:51.545Z,24.60
2022-10-20T11:34:30.099Z,24.27
2022-10-20T11:37:05.614Z,24.73
2022-10-20T11:39:40.617Z,24.90
2022-10-20T11:42:24.264Z,24.63
2022-10-20T11:44:56.509Z,25.70
2022-10-20T11:47:31.037Z,23.90
2022-10-20T11:55:26.320Z,23.90
2022-10-20T11:58:20.739Z,24.07
2022-10-20T12:01:01.665Z,21.83
2022-10-20T12:03:57.363Z,22.60
2022-10-20T12:06:50.250Z,24.03
2022-10-20T12:09:52.475Z,22.37
2022-10-20T12:12:28.973Z,25.30
2022-10-20T12:20:42.172Z,24.47
2022-10-20T12:23:52.082Z,24.47
2022-10-20T12:26:56.779Z,23.10
2022-10-20T12:29:47.886Z,24.07
2022-10-20T12:33:11.423Z,25.27
2022-10-20T12:36:02.762Z,25.47
2022-10-20T12:43:52.982Z,25.63
2022-10-20T12:46:27.499Z,25.30
2022-10-20T12:49:00.397Z,26.03
2022-10-20T12:51:40.582Z,28.00
2022-10-20T12:54:22.089Z,26.03
2022-10-20T12:56:51.196Z,26.63
2022-10-20T12:59:40.994Z,29.00
2022-10-20T13:07:57.787Z,27.93
2022-10-20T13:10:36.425Z,25.47
2022-10-20T13:13:46.923Z,25.63
2022-10-20T13:16:22.375Z,25.37
2022-10-20T13:18:53.131Z,27.17
2022-10-20T13:21:34.809Z,27.27
2022-10-20T13:24:15.959Z,30.60
2022-10-20T13:30:00.545Z,27.23
2022-10-20T13:32:48.033Z,25.87
2022-10-20T13:35:50.927Z,26.50
2022-10-20T13:38:41.417Z,26.33
2022-10-20T13:41:36.393Z,28.67
2022-10-20T13:44:30.499Z,29.23
2022-10-20T13:47:10.980Z,29.80
2022-10-20T13:49:52.923Z,27.60
2022-10-20T13:58:25.683Z,31.97
2022-10-20T14:01:24.633Z,30.83
2022-10-20T14:04:02.515Z,29.47
2022-10-20T14:06:41.429Z,32.67
2022-10-20T14:09:21.185Z,31.77
2022-10-20T14:12:08.635Z,30.67
2022-10-20T14:15:02.158Z,33.57
2022-10-20T14:25:04.914Z,33.07
2022-10-20T14:27:40.344Z,31.80
2022-10-20T14:30:15.285Z,33.27
2022-10-20T14:32:51.674Z,30.47
2022-10-20T14:35:34.086Z,31.50
2022-10-20T14:38:09.896Z,31.50
2022-10-20T14:40:43.665Z,30.73
2022-10-20T14:43:19.054Z,29.73
2022-10-20T14:45:55.875Z,30.60
2022-10-20T14:55:29.755Z,32.27
2022-10-20T14:58:10.762Z,31.40
2022-10-20T15:00:38.883Z,29.93
2022-10-20T15:03:09.299Z,29.37
2022-10-20T15:05:44.919Z,27.07
2022-10-20T15:08:32.781Z,32.17
2022-10-20T15:11:02.245Z,30.83
2022-10-20T15:17:36.086Z,34.27
2022-10-20T15:20:37.641Z,42.77
2022-10-20T15:23:12.144Z,35.03
2022-10-20T15:25:47.811Z,42.57
2022-10-20T15:28:33.395Z,52.00
2022-10-20T15:31:03.196Z,37.83
2022-10-20T15:33:33.680Z,35.77
2022-10-20T15:41:10.126Z,40.87
2022-10-20T15:43:40.742Z,35.97
2022-10-20T15:46:19.094Z,36.77
2022-10-20T15:48:48.704Z,44.17
2022-10-20T15:51:24.095Z,46.10
2022-10-20T15:53:54.455Z,42.70
2022-10-20T15:56:26.138Z,39.10
2022-10-20T15:58:57.578Z,36.17
2022-10-20T16:05:36.846Z,34.87
2022-10-20T16:08:07.949Z,39.93
2022-10-20T16:10:36.909Z,46.13
2022-10-20T16:13:05.456Z,44.37
2022-10-20T16:15:33.933Z,51.10
2022-10-20T16:18:05.866Z,41.13
2022-10-20T16:20:42.180Z,44.17
2022-10-20T16:26:07.006Z,36.33
2022-10-20T16:28:39.246Z,51.17
2022-10-20T16:31:08.923Z,46.93
2022-10-20T16:33:39.947Z,51.83
2022-10-20T16:36:15.978Z,52.17
2022-10-20T16:38:46.181Z,53.73
2022-10-20T16:41:16.565Z,47.07
2022-10-20T16:48:03.715Z,40.93
2022-10-20T16:50:31.538Z,33.80
2022-10-20T16:53:02.111Z,45.43
2022-10-20T16:55:30.114Z,58.67
2022-10-20T16:57:58.937Z,50.47
2022-10-20T17:00:26.707Z,48.23
2022-10-20T17:02:58.345Z,49.43
2022-10-20T17:08:14.156Z,44.60
2022-10-20T17:10:43.953Z,68.60
2022-10-20T17:13:12.011Z,51.33
2022-10-20T17:15:41.665Z,52.93
2022-10-20T17:18:10.013Z,43.23
2022-10-20T17:20:42.343Z,50.93
2022-10-20T17:23:10.548Z,59.23
2022-10-20T17:30:45.097Z,53.33
2022-10-20T17:33:16.406Z,51.77
2022-10-20T17:35:53.729Z,53.17
2022-10-20T17:46:26.173Z,50.83
2022-10-20T17:48:54.035Z,52.43
2022-10-20T17:51:26.019Z,48.57
2022-10-20T17:59:09.081Z,58.37
2022-10-20T18:01:43.767Z,80.67
2022-10-20T18:04:15.387Z,43.13
2022-10-20T18:06:46.732Z,53.87
2022-10-20T18:09:22.474Z,74.83
2022-10-20T18:11:53.635Z,66.03
2022-10-20T18:14:26.407Z,69.20
2022-10-20T18:19:44.724Z,63.53
2022-10-20T18:22:13.489Z,76.77
2022-10-20T18:24:43.314Z,80.63
2022-10-20T18:27:16.903Z,47.80
2022-10-20T18:29:47.583Z,73.27
2022-10-20T18:32:17.155Z,56.93
2022-10-20T18:34:48.534Z,70.60
2022-10-20T18:45:15.665Z,52.67
2022-10-20T18:47:55.615Z,54.87
2022-10-20T18:50:25.352Z,54.57
2022-10-20T18:52:53.484Z,69.40
2022-10-20T18:55:24.805Z,56.27
2022-10-20T18:57:52.945Z,44.47
2022-10-20T19:00:31.299Z,60.23
2022-10-20T19:03:01.935Z,50.07
2022-10-20T19:08:39.830Z,43.00
2022-10-20T19:11:11.057Z,38.10
2022-10-20T19:13:40.311Z,48.27
2022-10-20T19:16:10.874Z,39.00
2022-10-20T19:18:40.500Z,29.60
2022-10-20T19:21:10.965Z,39.07
2022-10-20T19:23:42.476Z,42.53
2022-10-20T19:29:12.065Z,49.87
2022-10-20T19:31:43.419Z,34.90
2022-10-20T19:34:19.595Z,39.60
2022-10-20T19:36:49.994Z,37.83
2022-10-20T19:39:21.513Z,47.60
2022-10-20T19:41:51.726Z,28.53
2022-10-20T19:44:24.755Z,38.50
2022-10-20T19:51:28.201Z,46.00
2022-10-20T19:54:01.687Z,31.07
2022-10-20T19:56:31.683Z,41.70
2022-10-20T19:59:01.797Z,38.40
2022-10-20T20:01:31.780Z,37.03
2022-10-20T20:03:59.860Z,31.43
2022-10-20T20:12:10.925Z,40.33
2022-10-20T20:14:47.847Z,31.57
2022-10-20T20:17:18.325Z,75.43
2022-10-20T20:19:48.316Z,42.87
2022-10-20T20:22:18.527Z,71.07
2022-10-20T20:24:46.486Z,57.93
2022-10-20T20:27:17.563Z,59.80
2022-10-20T20:29:46.694Z,68.00
2022-10-20T20:37:15.482Z,38.50
2022-10-20T20:39:46.278Z,53.17
2022-10-20T20:42:14.371Z,63.40
2022-10-20T20:44:43.883Z,56.40
2022-10-20T20:47:11.975Z,50.73
2022-10-20T20:49:40.121Z,56.07
2022-10-20T20:52:08.001Z,42.50
2022-10-20T20:59:44.849Z,88.53
2022-10-20T21:02:16.596Z,28.00
2022-10-20T21:04:47.524Z,109.60
2022-10-20T21:07:19.929Z,65.83
2022-10-20T21:09:49.811Z,59.83
2022-10-20T21:12:18.100Z,87.00
2022-10-20T21:14:51.139Z,61.93
2022-10-20T21:20:01.629Z,49.30
2022-10-20T21:22:30.467Z,41.23
2022-10-20T21:24:58.190Z,60.77
2022-10-20T21:27:26.106Z,50.70
2022-10-20T21:29:54.062Z,24.77
2022-10-20T21:32:25.734Z,51.47
2022-10-20T21:34:54.609Z,41.70
2022-10-20T21:41:44.633Z,54.80
2022-10-20T21:44:15.203Z,76.77
2022-10-20T21:46:48.189Z,45.10
2022-10-20T21:49:21.537Z,50.23
2022-10-20T21:51:51.919Z,59.17
2022-10-20T21:54:22.587Z,35.07
2022-10-20T21:56:51.440Z,57.87
2022-10-20T22:03:56.195Z,86.60
2022-10-20T22:06:30.600Z,77.93
2022-10-20T22:08:59.158Z,57.73
2022-10-20T22:11:28.711Z,63.17
2022-10-20T22:13:57.263Z,73.70
2022-10-20T22:16:27.123Z,65.47
2022-10-20T22:19:01.797Z,71.80
2022-10-20T22:24:29.809Z,50.60
2022-10-20T22:26:57.576Z,57.73
2022-10-20T22:29:28.306Z,55.77
2022-10-20T22:31:55.794Z,77.50
2022-10-20T22:34:24.665Z,47.53
2022-10-20T22:36:52.127Z,67.17
2022-10-20T22:39:19.847Z,55.47
2022-10-20T22:41:51.355Z,49.60
2022-10-20T22:49:27.465Z,71.07
2022-10-20T22:51:54.936Z,65.87
2022-10-20T22:54:22.485Z,53.03
2022-10-20T22:56:52.391Z,85.43
2022-10-20T22:59:23.034Z,56.47
2022-10-20T23:01:50.621Z,49.70
2022-10-20T23:04:17.883Z,56.77
2022-10-20T23:06:46.752Z,65.10
2022-10-20T23:14:20.673Z,61.57
2022-10-20T23:16:48.966Z,83.10
2022-10-20T23:19:16.625Z,55.03
2022-10-20T23:21:44.256Z,65.57
2022-10-20T23:24:11.999Z,48.00
2022-10-20T23:26:39.513Z,70.23
2022-10-20T23:29:06.864Z,56.63
2022-10-20T23:31:35.963Z,72.37
2022-10-20T23:36:45.414Z,50.90
2022-10-20T23:39:12.824Z,53.33
2022-10-20T23:41:40.226Z,64.07
2022-10-20T23:44:07.600Z,46.50
2022-10-20T23:46:37.115Z,51.63
2022-10-20T23:49:06.040Z,62.53
2022-10-20T23:51:34.558Z,46.77
2022-10-20T23:57:13.141Z,44.80
2022-10-20T23:59:40.873Z,41.63
